createdAt,value
2022-08-07T00:00:15.422Z,54.65
2022-08-07T00:00:51.401Z,54.69
2022-08-07T00:01:44.272Z,54.64
2022-08-07T00:02:36.400Z,54.71
2022-08-07T00:03:09.221Z,54.62
2022-08-07T00:03:47.308Z,54.60
2022-08-07T00:04:24.590Z,54.89
2022-08-07T00:04:56.828Z,54.92
2022-08-07T00:05:29.016Z,55.53
2022-08-07T00:06:02.634Z,56.00
2022-08-07T00:06:34.946Z,55.92
2022-08-07T00:07:09.582Z,55.85
2022-08-07T00:07:41.795Z,55.78
2022-08-07T00:08:14.474Z,55.58
2022-08-07T00:08:46.510Z,55.57
2022-08-07T00:09:22.543Z,55.53
2022-08-07T00:10:19.296Z,55.32
2022-08-07T00:10:48.083Z,55.38
2022-08-07T00:11:29.925Z,55.27
2022-08-07T00:12:05.357Z,55.73
2022-08-07T00:12:43.802Z,55.89
2022-08-07T00:13:29.569Z,55.55
2022-08-07T00:14:01.586Z,55.97
2022-08-07T00:14:33.786Z,55.77
2022-08-07T00:15:06.532Z,55.47
2022-08-07T00:15:46.753Z,55.53
2022-08-07T00:16:28.034Z,55.72
2022-08-07T00:17:01.892Z,55.67
2022-08-07T00:17:35.306Z,55.54
2022-08-07T00:18:09.610Z,55.46
2022-08-07T00:18:51.878Z,55.62
2022-08-07T00:19:33.973Z,55.55
2022-08-07T00:20:29.854Z,55.48
2022-08-07T00:21:56.057Z,55.58
2022-08-07T00:22:03.251Z,55.59
2022-08-07T00:22:35.790Z,55.47
2022-08-07T00:23:08.108Z,55.66
2022-08-07T00:23:41.481Z,55.71
2022-08-07T00:24:13.382Z,55.68
2022-08-07T00:24:46.614Z,55.83
2022-08-07T00:25:18.580Z,55.93
2022-08-07T00:25:59.258Z,55.99
2022-08-07T00:26:58.805Z,56.40
2022-08-07T00:27:27.314Z,56.31
2022-08-07T00:28:07.678Z,55.78
2022-08-07T00:28:46.209Z,55.74
2022-08-07T00:29:31.470Z,55.80
2022-08-07T00:30:05.292Z,55.99
2022-08-07T00:30:53.735Z,55.74
2022-08-07T00:31:38.201Z,55.20
2022-08-07T00:32:14.515Z,55.22
2022-08-07T00:32:49.301Z,55.49
2022-08-07T00:33:26.544Z,55.64
2022-08-07T00:34:00.441Z,55.55
2022-08-07T00:34:32.622Z,55.50
2022-08-07T00:35:07.860Z,55.59
2022-08-07T00:35:40.794Z,56.34
2022-08-07T00:36:12.715Z,56.87
2022-08-07T00:36:44.714Z,56.79
2022-08-07T00:37:17.733Z,56.60
2022-08-07T00:37:50.343Z,56.78
2022-08-07T00:38:31.367Z,56.72
2022-08-07T00:39:04.257Z,56.60
2022-08-07T00:39:36.355Z,56.53
2022-08-07T00:40:17.081Z,56.26
2022-08-07T00:41:09.905Z,55.79
2022-08-07T00:41:53.699Z,55.75
2022-08-07T00:42:34.146Z,55.58
2022-08-07T00:43:59.011Z,56.32
2022-08-07T00:44:05.850Z,56.06
2022-08-07T00:44:38.218Z,56.13
2022-08-07T00:45:16.253Z,56.04
2022-08-07T00:45:49.054Z,55.90
2022-08-07T00:46:22.835Z,56.09
2022-08-07T00:46:56.477Z,55.84
2022-08-07T00:48:09.740Z,55.66
2022-08-07T00:48:25.118Z,55.78
2022-08-07T00:49:04.753Z,55.69
2022-08-07T00:50:19.535Z,55.75
2022-08-07T00:50:46.381Z,55.79
2022-08-07T00:51:20.567Z,55.63
2022-08-07T00:51:56.711Z,55.46
2022-08-07T00:52:29.837Z,55.64
2022-08-07T00:53:05.510Z,55.72
2022-08-07T00:53:50.504Z,55.68
2022-08-07T00:54:27.303Z,55.39
2022-08-07T00:55:04.588Z,55.27
2022-08-07T00:56:03.325Z,55.49
2022-08-07T00:56:35.639Z,55.51
2022-08-07T00:57:09.202Z,55.75
2022-08-07T00:57:55.282Z,55.68
2022-08-07T00:58:28.451Z,55.59
2022-08-07T00:59:01.544Z,55.76
2022-08-07T00:59:35.774Z,55.44
2022-08-07T01:00:09.049Z,55.39
2022-08-07T01:00:53.791Z,55.47
2022-08-07T01:01:26.734Z,55.42
2022-08-07T01:01:59.495Z,55.75
2022-08-07T01:02:31.682Z,55.70
2022-08-07T01:03:04.174Z,55.92
2022-08-07T01:03:57.236Z,55.60
2022-08-07T01:04:30.491Z,55.81
2022-08-07T01:05:19.122Z,55.80
2022-08-07T01:05:55.795Z,55.51
2022-08-07T01:06:29.097Z,55.88
2022-08-07T01:07:02.006Z,56.26
2022-08-07T01:07:35.581Z,55.94
2022-08-07T01:08:09.097Z,56.00
2022-08-07T01:08:51.574Z,56.06
2022-08-07T01:10:04.196Z,55.99
2022-08-07T01:10:19.973Z,56.04
2022-08-07T01:10:56.327Z,56.15
2022-08-07T01:12:09.982Z,56.20
2022-08-07T01:12:29.963Z,56.27
2022-08-07T01:13:03.565Z,56.35
2022-08-07T01:13:36.592Z,55.59
2022-08-07T01:14:09.286Z,55.55
2022-08-07T01:14:41.556Z,55.41
2022-08-07T01:15:17.755Z,55.37
2022-08-07T01:16:00.818Z,55.34
2022-08-07T01:16:37.698Z,55.51
2022-08-07T01:17:10.916Z,55.63
2022-08-07T01:17:43.083Z,55.47
2022-08-07T01:18:17.202Z,55.44
2022-08-07T01:18:50.647Z,55.46
2022-08-07T01:19:24.863Z,55.54
2022-08-07T01:20:16.743Z,55.76
2022-08-07T01:21:22.394Z,55.73
2022-08-07T01:21:57.193Z,55.79
2022-08-07T01:22:29.743Z,55.78
2022-08-07T01:23:12.244Z,55.71
2022-08-07T01:23:46.765Z,55.54
2022-08-07T01:24:21.343Z,55.86
2022-08-07T01:24:54.868Z,55.83
2022-08-07T01:25:54.328Z,55.76
2022-08-07T01:26:23.027Z,56.02
2022-08-07T01:27:00.331Z,56.19
2022-08-07T01:27:32.747Z,56.12
2022-08-07T01:28:05.105Z,56.18
2022-08-07T01:28:38.073Z,56.08
2022-08-07T01:29:11.302Z,55.94
2022-08-07T01:29:43.429Z,55.87
2022-08-07T01:30:15.525Z,55.80
2022-08-07T01:30:54.078Z,55.22
2022-08-07T01:31:42.766Z,55.17
2022-08-07T01:32:22.307Z,55.12
2022-08-07T01:32:55.873Z,55.16
2022-08-07T01:33:55.484Z,55.80
2022-08-07T01:34:30.802Z,55.50
2022-08-07T01:35:03.779Z,55.26
2022-08-07T01:35:52.828Z,55.40
2022-08-07T01:36:33.222Z,55.27
2022-08-07T01:37:09.853Z,55.69
2022-08-07T01:37:42.941Z,55.83
2022-08-07T01:38:25.792Z,55.68
2022-08-07T01:38:59.816Z,55.64
2022-08-07T01:39:39.501Z,55.74
2022-08-07T01:40:16.331Z,55.64
2022-08-07T01:40:56.625Z,55.66
2022-08-07T01:41:29.173Z,55.51
2022-08-07T01:42:37.031Z,55.42
2022-08-07T01:42:59.041Z,55.66
2022-08-07T01:43:34.526Z,55.61
2022-08-07T01:44:12.355Z,55.59
2022-08-07T01:44:47.983Z,55.63
2022-08-07T01:45:22.987Z,55.63
2022-08-07T01:46:01.725Z,55.75
2022-08-07T01:46:34.928Z,55.55
2022-08-07T01:47:14.626Z,55.91
2022-08-07T01:48:29.629Z,55.97
2022-08-07T01:48:52.376Z,55.83
2022-08-07T01:49:24.773Z,55.64
2022-08-07T01:49:58.396Z,55.52
2022-08-07T01:50:40.348Z,55.51
2022-08-07T01:52:00.987Z,55.67
2022-08-07T01:52:15.437Z,55.95
2022-08-07T01:52:49.610Z,55.94
2022-08-07T01:54:12.594Z,56.02
2022-08-07T01:54:36.872Z,55.97
2022-08-07T01:55:22.567Z,56.29
2022-08-07T01:56:01.207Z,56.16
2022-08-07T01:56:51.798Z,56.21
2022-08-07T01:57:28.783Z,55.98
2022-08-07T01:58:29.312Z,55.78
2022-08-07T01:59:09.409Z,56.08
2022-08-07T01:59:56.032Z,56.05
2022-08-07T02:00:31.943Z,55.91
2022-08-07T02:01:58.874Z,55.94
2022-08-07T02:02:10.490Z,55.78
2022-08-07T02:03:11.609Z,55.87
2022-08-07T02:03:58.307Z,56.21
2022-08-07T02:04:55.982Z,56.36
2022-08-07T02:05:43.233Z,56.91
2022-08-07T02:06:31.523Z,56.94
2022-08-07T02:07:07.648Z,56.80
2022-08-07T02:07:52.342Z,56.70
2022-08-07T02:08:26.719Z,56.63
2022-08-07T02:09:00.649Z,56.41
2022-08-07T02:09:54.777Z,56.38
2022-08-07T02:10:30.679Z,56.48
2022-08-07T02:11:04.541Z,56.27
2022-08-07T02:12:05.105Z,56.09
2022-08-07T02:12:38.532Z,56.14
2022-08-07T02:13:14.166Z,56.23
2022-08-07T02:13:58.217Z,56.10
2022-08-07T02:14:40.876Z,56.12
2022-08-07T02:15:18.261Z,56.23
2022-08-07T02:15:53.290Z,56.34
2022-08-07T02:16:28.762Z,56.21
2022-08-07T02:17:06.391Z,56.51
2022-08-07T02:17:41.118Z,56.18
2022-08-07T02:18:22.658Z,56.20
2022-08-07T02:18:58.653Z,56.13
2022-08-07T02:20:04.550Z,56.20
2022-08-07T02:20:24.720Z,56.09
2022-08-07T02:21:00.364Z,55.96
2022-08-07T02:21:55.088Z,55.94
2022-08-07T02:22:31.682Z,55.88
2022-08-07T02:23:06.113Z,56.19
2022-08-07T02:23:40.939Z,56.28
2022-08-07T02:24:17.747Z,56.71
2022-08-07T02:24:53.314Z,56.33
2022-08-07T02:26:10.315Z,56.31
2022-08-07T02:26:33.062Z,56.60
2022-08-07T02:27:08.479Z,56.13
2022-08-07T02:27:42.767Z,56.27
2022-08-07T02:28:27.178Z,56.14
2022-08-07T02:29:00.906Z,56.17
2022-08-07T02:29:36.907Z,56.15
2022-08-07T02:30:21.486Z,55.83
2022-08-07T02:30:56.458Z,56.14
2022-08-07T02:31:31.036Z,56.26
2022-08-07T02:32:07.000Z,56.31
2022-08-07T02:33:00.808Z,57.77
2022-08-07T02:33:57.192Z,57.73
2022-08-07T02:34:31.092Z,57.19
2022-08-07T02:35:09.176Z,56.92
2022-08-07T02:36:30.096Z,56.67
2022-08-07T02:36:38.575Z,56.56
2022-08-07T02:37:14.286Z,56.33
2022-08-07T02:37:48.891Z,56.21
2022-08-07T02:38:28.246Z,56.03
2022-08-07T02:39:16.175Z,55.83
2022-08-07T02:40:02.026Z,55.85
2022-08-07T02:40:46.685Z,56.13
2022-08-07T02:41:21.659Z,56.03
2022-08-07T02:41:56.541Z,56.11
2022-08-07T02:42:31.172Z,56.28
2022-08-07T02:43:07.776Z,56.28
2022-08-07T02:43:43.262Z,56.29
2022-08-07T02:44:21.361Z,56.17
2022-08-07T02:44:58.399Z,55.94
2022-08-07T02:45:58.956Z,55.94
2022-08-07T02:46:26.129Z,56.03
2022-08-07T02:47:05.306Z,56.20
2022-08-07T02:47:45.070Z,56.10
2022-08-07T02:48:21.671Z,56.10
2022-08-07T02:48:54.928Z,56.26
2022-08-07T02:49:29.133Z,56.29
2022-08-07T02:50:21.099Z,56.32
2022-08-07T02:50:56.336Z,56.43
2022-08-07T02:51:49.889Z,56.27
2022-08-07T02:52:37.337Z,56.12
2022-08-07T02:53:15.273Z,55.94
2022-08-07T02:53:54.278Z,55.87
2022-08-07T02:54:29.988Z,55.98
2022-08-07T02:55:27.825Z,56.05
2022-08-07T02:56:06.557Z,56.14
2022-08-07T02:56:47.398Z,55.74
2022-08-07T02:57:23.471Z,55.74
2022-08-07T02:58:08.256Z,55.69
2022-08-07T02:58:47.311Z,55.92
2022-08-07T02:59:27.421Z,56.04
2022-08-07T03:00:04.989Z,56.08
2022-08-07T03:00:46.881Z,55.92
2022-08-07T03:01:35.047Z,55.80
2022-08-07T03:02:10.336Z,55.76
2022-08-07T03:02:55.134Z,55.74
2022-08-07T03:03:49.263Z,55.76
2022-08-07T03:04:24.344Z,56.51
2022-08-07T03:04:58.711Z,56.79
2022-08-07T03:05:35.950Z,56.63
2022-08-07T03:06:16.560Z,56.59
2022-08-07T03:07:07.093Z,56.62
2022-08-07T03:08:05.085Z,56.48
2022-08-07T03:08:38.678Z,56.79
2022-08-07T03:09:11.686Z,56.43
2022-08-07T03:09:48.257Z,56.43
2022-08-07T03:10:23.450Z,56.39
2022-08-07T03:10:57.424Z,56.51
2022-08-07T03:11:38.534Z,56.36
2022-08-07T03:12:21.808Z,56.24
2022-08-07T03:12:55.326Z,56.41
2022-08-07T03:13:27.985Z,56.46
2022-08-07T03:14:03.633Z,56.22
2022-08-07T03:14:36.443Z,56.23
2022-08-07T03:15:09.428Z,56.15
2022-08-07T03:15:55.802Z,55.93
2022-08-07T03:16:31.726Z,55.70
2022-08-07T03:17:05.838Z,56.04
2022-08-07T03:17:53.050Z,56.22
2022-08-07T03:18:34.983Z,56.50
2022-08-07T03:19:10.064Z,56.41
2022-08-07T03:19:42.777Z,56.71
2022-08-07T03:20:27.524Z,56.83
2022-08-07T03:20:59.882Z,57.18
2022-08-07T03:21:32.854Z,57.23
2022-08-07T03:22:06.875Z,57.06
2022-08-07T03:22:41.806Z,56.40
2022-08-07T03:23:33.619Z,56.47
2022-08-07T03:24:20.022Z,56.12
2022-08-07T03:25:00.547Z,55.86
2022-08-07T03:25:40.377Z,55.68
2022-08-07T03:26:23.440Z,55.72
2022-08-07T03:27:01.955Z,55.92
2022-08-07T03:27:58.779Z,56.16
2022-08-07T03:28:37.387Z,56.25
2022-08-07T03:29:14.834Z,56.41
2022-08-07T03:29:53.101Z,57.00
2022-08-07T03:30:28.487Z,57.50
2022-08-07T03:31:19.614Z,57.55
2022-08-07T03:31:58.056Z,57.25
2022-08-07T03:32:39.488Z,57.42
2022-08-07T03:33:22.005Z,57.81
2022-08-07T03:33:57.950Z,58.19
2022-08-07T03:34:39.377Z,58.32
2022-08-07T03:35:17.901Z,58.41
2022-08-07T03:35:51.152Z,58.38
2022-08-07T03:36:25.930Z,58.63
2022-08-07T03:37:12.415Z,58.78
2022-08-07T03:37:53.151Z,58.67
2022-08-07T03:38:29.752Z,58.74
2022-08-07T03:39:11.764Z,59.44
2022-08-07T03:40:13.224Z,59.33
2022-08-07T03:40:44.556Z,59.51
2022-08-07T03:41:17.555Z,58.65
2022-08-07T03:41:50.867Z,58.39
2022-08-07T03:42:25.852Z,58.18
2022-08-07T03:42:58.802Z,58.67
2022-08-07T03:43:33.489Z,58.77
2022-08-07T03:44:09.051Z,58.71
2022-08-07T03:44:42.170Z,58.86
2022-08-07T03:45:29.971Z,58.92
2022-08-07T03:46:10.367Z,59.18
2022-08-07T03:47:10.716Z,59.89
2022-08-07T03:47:48.206Z,59.94
2022-08-07T03:48:24.404Z,59.46
2022-08-07T03:49:02.703Z,59.41
2022-08-07T03:49:36.419Z,59.28
2022-08-07T03:50:10.654Z,59.46
2022-08-07T03:50:55.770Z,59.58
2022-08-07T03:51:31.213Z,59.51
2022-08-07T03:52:26.643Z,59.40
2022-08-07T03:53:01.090Z,59.61
2022-08-07T03:54:05.489Z,59.63
2022-08-07T03:54:35.231Z,59.89
2022-08-07T03:55:11.021Z,59.82
2022-08-07T03:55:53.420Z,59.83
2022-08-07T03:56:33.584Z,59.66
2022-08-07T03:57:08.121Z,59.65
2022-08-07T03:58:33.924Z,59.67
2022-08-07T03:59:08.301Z,59.59
2022-08-07T03:59:28.169Z,59.11
2022-08-07T04:00:01.864Z,59.38
2022-08-07T04:00:38.599Z,59.54
2022-08-07T04:01:21.016Z,59.53
2022-08-07T04:01:56.268Z,59.59
2022-08-07T04:02:29.086Z,59.45
2022-08-07T04:03:03.857Z,59.44
2022-08-07T04:03:38.901Z,59.55
2022-08-07T04:04:25.655Z,59.78
2022-08-07T04:04:58.788Z,59.92
2022-08-07T04:05:41.056Z,60.11
2022-08-07T04:06:38.449Z,60.10
2022-08-07T04:07:16.765Z,60.48
2022-08-07T04:07:51.399Z,60.62
2022-08-07T04:08:25.168Z,60.46
2022-08-07T04:08:58.026Z,60.25
2022-08-07T04:09:44.734Z,60.64
2022-08-07T04:10:19.364Z,60.96
2022-08-07T04:12:24.943Z,61.07
2022-08-07T04:12:25.144Z,60.86
2022-08-07T04:12:40.344Z,60.64
2022-08-07T04:13:15.092Z,60.67
2022-08-07T04:14:33.243Z,60.32
2022-08-07T04:14:43.868Z,60.30
2022-08-07T04:15:20.381Z,60.20
2022-08-07T04:15:56.055Z,60.14
2022-08-07T04:16:32.569Z,60.48
2022-08-07T04:17:19.868Z,60.76
2022-08-07T04:18:58.077Z,60.90
2022-08-07T04:18:59.028Z,61.04
2022-08-07T04:19:52.011Z,61.53
2022-08-07T04:20:26.982Z,61.80
2022-08-07T04:21:00.548Z,61.41
2022-08-07T04:21:33.538Z,61.25
2022-08-07T04:22:13.242Z,61.01
2022-08-07T04:22:53.575Z,60.80
2022-08-07T04:23:43.667Z,60.86
2022-08-07T04:24:30.463Z,60.66
2022-08-07T04:25:08.869Z,60.71
2022-08-07T04:25:45.861Z,61.17
2022-08-07T04:26:22.164Z,60.99
2022-08-07T04:26:54.346Z,61.16
2022-08-07T04:27:28.203Z,61.06
2022-08-07T04:28:01.197Z,61.04
2022-08-07T04:28:33.825Z,61.22
2022-08-07T04:29:11.037Z,61.29
2022-08-07T04:29:58.672Z,61.11
2022-08-07T04:30:43.464Z,60.82
2022-08-07T04:31:38.442Z,61.62
2022-08-07T04:32:27.265Z,61.15
2022-08-07T04:33:09.730Z,61.11
2022-08-07T04:33:47.247Z,61.45
2022-08-07T04:34:33.047Z,62.07
2022-08-07T04:35:11.386Z,62.20
2022-08-07T04:35:50.383Z,62.05
2022-08-07T04:36:26.383Z,62.43
2022-08-07T04:36:58.751Z,62.33
2022-08-07T04:38:00.951Z,61.80
2022-08-07T04:38:26.072Z,61.71
2022-08-07T04:38:58.769Z,61.65
2022-08-07T04:39:35.997Z,61.65
2022-08-07T04:40:09.389Z,62.26
2022-08-07T04:40:51.672Z,61.82
2022-08-07T04:41:24.629Z,61.78
2022-08-07T04:42:03.327Z,62.00
2022-08-07T04:42:35.613Z,61.97
2022-08-07T04:43:09.175Z,61.99
2022-08-07T04:44:12.334Z,61.96
2022-08-07T04:44:36.732Z,61.45
2022-08-07T04:45:57.490Z,61.50
2022-08-07T04:47:03.827Z,61.73
2022-08-07T04:47:57.272Z,61.77
2022-08-07T04:48:51.926Z,61.52
2022-08-07T04:49:58.173Z,61.43
2022-08-07T04:50:51.980Z,61.27
2022-08-07T04:51:35.369Z,60.33
2022-08-07T04:52:25.177Z,60.30
2022-08-07T04:53:27.807Z,60.43
2022-08-07T04:54:30.082Z,60.62
2022-08-07T04:55:34.976Z,59.80
2022-08-07T04:58:13.248Z,60.14
2022-08-07T04:58:24.427Z,60.22
2022-08-07T04:59:17.189Z,60.38
2022-08-07T05:00:11.340Z,60.27
2022-08-07T05:00:59.596Z,58.83
2022-08-07T05:01:40.645Z,59.40
2022-08-07T05:02:22.184Z,59.26
2022-08-07T05:03:16.901Z,59.09
2022-08-07T05:04:22.462Z,59.33
2022-08-07T05:05:51.694Z,58.32
2022-08-07T05:06:28.183Z,57.79
2022-08-07T05:07:20.987Z,57.17
2022-08-07T05:08:06.165Z,56.76
2022-08-07T05:09:00.649Z,56.44
2022-08-07T05:09:47.067Z,56.51
2022-08-07T05:10:29.192Z,55.88
2022-08-07T05:11:10.088Z,55.79
2022-08-07T05:11:58.381Z,55.60
2022-08-07T05:12:53.125Z,55.77
2022-08-07T05:14:54.376Z,55.84
2022-08-07T05:14:55.702Z,55.59
2022-08-07T05:15:36.092Z,55.09
2022-08-07T05:16:10.450Z,55.21
2022-08-07T05:16:52.780Z,56.31
2022-08-07T05:17:50.887Z,55.95
2022-08-07T05:18:23.645Z,55.86
2022-08-07T05:19:04.780Z,56.18
2022-08-07T05:19:48.399Z,56.21
2022-08-07T05:20:26.957Z,55.84
2022-08-07T05:21:04.002Z,55.59
2022-08-07T05:22:00.691Z,55.60
2022-08-07T05:22:35.963Z,55.53
2022-08-07T05:23:29.099Z,56.13
2022-08-07T05:24:09.265Z,56.36
2022-08-07T05:24:42.504Z,56.33
2022-08-07T05:25:25.679Z,56.39
2022-08-07T05:26:23.529Z,56.31
2022-08-07T05:27:00.031Z,56.51
2022-08-07T05:28:03.412Z,56.20
2022-08-07T05:28:27.621Z,56.21
2022-08-07T05:29:04.391Z,56.44
2022-08-07T05:29:50.985Z,55.86
2022-08-07T05:30:30.326Z,55.18
2022-08-07T05:31:07.690Z,55.21
2022-08-07T05:31:51.191Z,54.87
2022-08-07T05:32:26.498Z,54.06
2022-08-07T05:33:00.506Z,54.23
2022-08-07T05:33:37.102Z,54.46
2022-08-07T05:34:15.830Z,54.54
2022-08-07T05:34:49.807Z,54.38
2022-08-07T05:35:33.467Z,54.06
2022-08-07T05:36:22.702Z,54.09
2022-08-07T05:37:05.753Z,53.80
2022-08-07T05:37:40.844Z,54.18
2022-08-07T05:39:00.704Z,53.76
2022-08-07T05:40:06.745Z,53.38
2022-08-07T05:40:13.705Z,52.72
2022-08-07T05:40:51.478Z,52.73
2022-08-07T05:41:25.600Z,52.20
2022-08-07T05:42:33.894Z,51.76
2022-08-07T05:43:10.615Z,51.84
2022-08-07T05:44:12.735Z,52.69
2022-08-07T05:44:52.977Z,52.64
2022-08-07T05:45:46.886Z,52.20
2022-08-07T05:46:22.256Z,51.79
2022-08-07T05:47:01.209Z,51.89
2022-08-07T05:47:38.505Z,51.81
2022-08-07T05:48:29.362Z,51.26
2022-08-07T05:49:11.865Z,50.79
2022-08-07T05:49:45.740Z,50.77
2022-08-07T05:50:18.770Z,50.67
2022-08-07T05:50:51.729Z,50.61
2022-08-07T05:51:24.311Z,50.59
2022-08-07T05:51:56.987Z,50.83
2022-08-07T05:52:32.399Z,50.79
2022-08-07T05:53:05.070Z,50.35
2022-08-07T05:54:13.598Z,50.29
2022-08-07T05:54:31.142Z,50.85
2022-08-07T05:55:10.928Z,51.12
2022-08-07T05:56:02.268Z,51.31
2022-08-07T05:56:40.796Z,50.61
2022-08-07T05:57:15.077Z,51.00
2022-08-07T05:57:48.080Z,51.24
2022-08-07T05:58:36.415Z,50.95
2022-08-07T05:59:15.367Z,50.98
2022-08-07T05:59:57.994Z,50.72
2022-08-07T06:00:33.826Z,50.49
2022-08-07T06:01:11.132Z,50.68
2022-08-07T06:01:45.967Z,50.99
2022-08-07T06:02:22.012Z,50.72
2022-08-07T06:03:05.330Z,50.66
2022-08-07T06:03:53.926Z,50.76
2022-08-07T06:04:31.036Z,51.23
2022-08-07T06:05:11.030Z,50.80
2022-08-07T06:05:49.279Z,50.78
2022-08-07T06:06:29.888Z,51.09
2022-08-07T06:07:06.140Z,51.12
2022-08-07T06:08:14.237Z,51.06
2022-08-07T06:08:32.723Z,51.10
2022-08-07T06:09:05.338Z,51.04
2022-08-07T06:09:45.319Z,50.85
2022-08-07T06:10:31.223Z,50.66
2022-08-07T06:11:03.776Z,50.59
2022-08-07T06:11:37.804Z,50.75
2022-08-07T06:12:10.454Z,50.52
2022-08-07T06:12:44.546Z,50.36
2022-08-07T06:13:17.483Z,50.17
2022-08-07T06:14:12.889Z,49.96
2022-08-07T06:14:43.333Z,49.99
2022-08-07T06:15:42.058Z,49.78
2022-08-07T06:16:16.377Z,49.19
2022-08-07T06:16:55.871Z,49.25
2022-08-07T06:17:37.610Z,49.04
2022-08-07T06:18:13.907Z,49.36
2022-08-07T06:18:51.746Z,49.78
2022-08-07T06:19:52.369Z,49.90
2022-08-07T06:20:32.152Z,49.85
2022-08-07T06:22:14.679Z,49.27
2022-08-07T06:22:15.645Z,49.13
2022-08-07T06:23:02.416Z,49.24
2022-08-07T06:24:48.154Z,49.45
2022-08-07T06:24:56.797Z,49.40
2022-08-07T06:25:34.871Z,49.14
2022-08-07T06:26:11.316Z,49.07
2022-08-07T06:26:43.409Z,48.68
2022-08-07T06:27:59.966Z,48.58
2022-08-07T06:28:18.304Z,48.72
2022-08-07T06:29:01.317Z,48.58
2022-08-07T06:29:38.862Z,48.60
2022-08-07T06:30:32.064Z,48.39
2022-08-07T06:31:03.934Z,48.30
2022-08-07T06:31:50.033Z,48.61
2022-08-07T06:32:23.043Z,48.74
2022-08-07T06:33:02.278Z,48.67
2022-08-07T06:33:36.294Z,48.87
2022-08-07T06:34:08.362Z,48.91
2022-08-07T06:34:45.141Z,48.94
2022-08-07T06:35:17.698Z,48.80
2022-08-07T06:36:06.586Z,48.78
2022-08-07T06:36:43.321Z,48.43
2022-08-07T06:37:17.173Z,48.14
2022-08-07T06:38:10.061Z,48.35
2022-08-07T06:40:12.830Z,48.23
2022-08-07T06:40:13.667Z,47.70
2022-08-07T06:40:51.238Z,47.64
2022-08-07T06:42:02.566Z,47.87
2022-08-07T06:42:37.028Z,47.82
2022-08-07T06:43:21.644Z,48.21
2022-08-07T06:43:59.464Z,47.90
2022-08-07T06:44:41.013Z,47.47
2022-08-07T06:45:18.825Z,47.50
2022-08-07T06:45:57.375Z,47.52
2022-08-07T06:46:35.254Z,47.19
2022-08-07T06:47:12.021Z,47.28
2022-08-07T06:47:59.025Z,47.58
2022-08-07T06:48:32.325Z,47.45
2022-08-07T06:49:05.815Z,47.55
2022-08-07T06:49:52.045Z,47.73
2022-08-07T06:50:36.073Z,48.20
2022-08-07T06:51:10.806Z,47.62
2022-08-07T06:51:49.953Z,46.44
2022-08-07T06:52:31.986Z,46.55
2022-08-07T06:53:49.111Z,46.76
2022-08-07T06:55:29.107Z,46.73
2022-08-07T06:55:31.677Z,47.00
2022-08-07T06:56:00.416Z,47.49
2022-08-07T06:56:49.711Z,47.64
2022-08-07T06:57:39.287Z,48.23
2022-08-07T06:58:21.584Z,48.01
2022-08-07T07:00:12.532Z,46.85
2022-08-07T07:00:13.978Z,46.75
2022-08-07T07:00:45.807Z,46.81
2022-08-07T07:01:18.190Z,46.52
2022-08-07T07:01:52.549Z,47.17
2022-08-07T07:02:53.444Z,48.20
2022-08-07T07:03:39.714Z,48.18
2022-08-07T07:04:28.434Z,48.17
2022-08-07T07:05:05.767Z,47.45
2022-08-07T07:06:05.632Z,47.06
2022-08-07T07:06:32.117Z,46.85
2022-08-07T07:07:19.369Z,46.31
2022-08-07T07:08:07.299Z,46.09
2022-08-07T07:08:47.004Z,45.47
2022-08-07T07:09:31.408Z,45.47
2022-08-07T07:10:04.413Z,45.80
2022-08-07T07:10:36.771Z,45.81
2022-08-07T07:11:13.917Z,45.67
2022-08-07T07:12:29.206Z,45.72
2022-08-07T07:13:17.157Z,46.46
2022-08-07T07:14:10.392Z,45.67
2022-08-07T07:14:58.661Z,44.86
2022-08-07T07:15:37.659Z,45.05
2022-08-07T07:16:19.487Z,45.41
2022-08-07T07:16:56.282Z,45.64
2022-08-07T07:17:50.406Z,45.41
2022-08-07T07:18:47.807Z,44.97
2022-08-07T07:19:55.224Z,45.03
2022-08-07T07:20:22.030Z,44.72
2022-08-07T07:21:13.541Z,43.76
2022-08-07T07:22:12.053Z,44.11
2022-08-07T07:24:09.487Z,45.11
2022-08-07T07:24:09.725Z,42.71
2022-08-07T07:24:32.965Z,42.64
2022-08-07T07:26:30.861Z,43.13
2022-08-07T07:26:35.301Z,42.76
2022-08-07T07:27:03.976Z,42.90
2022-08-07T07:27:55.787Z,43.63
2022-08-07T07:29:38.864Z,43.16
2022-08-07T07:30:08.815Z,43.34
2022-08-07T07:30:39.752Z,43.30
2022-08-07T07:31:44.479Z,43.72
2022-08-07T07:32:17.930Z,44.02
2022-08-07T07:32:53.181Z,44.19
2022-08-07T07:33:28.542Z,44.44
2022-08-07T07:34:06.699Z,44.52
2022-08-07T07:34:42.195Z,44.23
2022-08-07T07:35:15.183Z,43.83
2022-08-07T07:36:04.059Z,44.10
2022-08-07T07:36:40.371Z,44.05
2022-08-07T07:37:44.435Z,44.08
2022-08-07T07:38:08.501Z,44.09
2022-08-07T07:38:46.001Z,44.64
2022-08-07T07:39:20.967Z,45.08
2022-08-07T07:39:59.072Z,45.39
2022-08-07T07:40:33.367Z,45.51
2022-08-07T07:41:09.248Z,44.98
2022-08-07T07:42:02.109Z,44.64
2022-08-07T07:42:37.765Z,44.35
2022-08-07T07:43:15.235Z,44.42
2022-08-07T07:44:17.363Z,44.62
2022-08-07T07:44:49.469Z,44.74
2022-08-07T07:46:35.577Z,44.58
2022-08-07T07:46:37.035Z,44.67
2022-08-07T07:47:23.724Z,44.62
2022-08-07T07:47:57.745Z,44.47
2022-08-07T07:48:34.991Z,44.35
2022-08-07T07:50:35.014Z,44.54
2022-08-07T07:50:35.564Z,44.71
2022-08-07T07:50:55.976Z,44.93
2022-08-07T07:51:29.910Z,44.86
2022-08-07T07:52:25.887Z,44.75
2022-08-07T07:52:59.114Z,44.89
2022-08-07T07:53:36.769Z,44.90
2022-08-07T07:54:25.059Z,44.79
2022-08-07T07:54:59.208Z,44.61
2022-08-07T07:55:37.156Z,44.96
2022-08-07T07:56:13.131Z,45.28
2022-08-07T07:56:46.637Z,45.34
2022-08-07T07:57:52.250Z,45.47
2022-08-07T07:58:15.877Z,45.51
2022-08-07T07:58:51.943Z,45.45
2022-08-07T07:59:52.894Z,45.37
2022-08-07T08:00:31.476Z,45.56
2022-08-07T08:02:04.760Z,45.04
2022-08-07T08:02:10.316Z,45.02
2022-08-07T08:03:00.949Z,44.54
2022-08-07T08:04:11.127Z,44.62
2022-08-07T08:04:32.856Z,44.54
2022-08-07T08:05:11.526Z,45.24
2022-08-07T08:05:54.933Z,43.64
2022-08-07T08:06:28.837Z,43.96
2022-08-07T08:07:07.783Z,43.73
2022-08-07T08:08:00.043Z,44.33
2022-08-07T08:08:36.904Z,44.92
2022-08-07T08:09:13.516Z,44.59
2022-08-07T08:09:51.685Z,44.40
2022-08-07T08:10:38.696Z,44.38
2022-08-07T08:11:16.621Z,44.23
2022-08-07T08:12:02.245Z,43.43
2022-08-07T08:12:58.911Z,43.62
2022-08-07T08:13:36.882Z,43.86
2022-08-07T08:14:24.627Z,44.34
2022-08-07T08:14:58.556Z,43.84
2022-08-07T08:15:58.030Z,43.87
2022-08-07T08:16:50.707Z,44.05
2022-08-07T08:17:58.112Z,42.45
2022-08-07T08:18:18.622Z,42.57
2022-08-07T08:18:55.132Z,42.39
2022-08-07T08:20:18.551Z,42.71
2022-08-07T08:20:27.309Z,43.17
2022-08-07T08:21:05.068Z,42.41
2022-08-07T08:22:03.092Z,42.17
2022-08-07T08:22:59.231Z,43.14
2022-08-07T08:23:52.238Z,42.54
2022-08-07T08:24:57.115Z,42.62
2022-08-07T08:25:58.058Z,42.42
2022-08-07T08:26:50.537Z,44.01
2022-08-07T08:27:26.578Z,42.89
2022-08-07T08:28:09.510Z,42.66
2022-08-07T08:28:45.005Z,42.26
2022-08-07T08:29:18.481Z,42.14
2022-08-07T08:29:55.945Z,42.59
2022-08-07T08:30:29.060Z,42.55
2022-08-07T08:31:02.879Z,43.27
2022-08-07T08:32:16.929Z,43.23
2022-08-07T08:32:48.825Z,43.24
2022-08-07T08:33:28.926Z,42.12
2022-08-07T08:34:08.790Z,42.65
2022-08-07T08:34:46.513Z,42.76
2022-08-07T08:35:23.768Z,43.23
2022-08-07T08:36:02.646Z,43.43
2022-08-07T08:36:36.599Z,42.93
2022-08-07T08:37:53.957Z,41.81
2022-08-07T08:38:05.631Z,42.26
2022-08-07T08:38:43.544Z,42.47
2022-08-07T08:39:16.911Z,42.05
2022-08-07T08:39:55.144Z,41.74
2022-08-07T08:40:43.828Z,41.80
2022-08-07T08:41:31.601Z,42.07
2022-08-07T08:42:47.191Z,42.48
2022-08-07T08:43:31.955Z,42.38
2022-08-07T08:44:44.620Z,41.48
2022-08-07T08:56:47.548Z,39.28
2022-08-07T08:57:34.195Z,39.28
2022-08-07T08:58:13.209Z,39.85
2022-08-07T08:59:02.438Z,39.56
2022-08-07T08:59:57.189Z,39.48
2022-08-07T09:00:36.715Z,40.19
2022-08-07T09:01:22.439Z,40.49
2022-08-07T09:02:35.143Z,39.96
2022-08-07T09:03:48.115Z,39.66
2022-08-07T09:04:36.661Z,39.43
2022-08-07T09:05:26.418Z,39.12
2022-08-07T09:06:18.155Z,38.74
2022-08-07T09:07:11.597Z,38.48
2022-08-07T09:07:57.678Z,38.60
2022-08-07T09:08:33.405Z,38.76
2022-08-07T09:09:30.048Z,39.03
2022-08-07T09:10:17.589Z,38.37
2022-08-07T09:11:06.052Z,38.74
2022-08-07T09:12:02.795Z,39.02